createdAt,value
2022-09-26T01:37:30.147Z,96632.56
2022-09-26T01:39:56.220Z,96625.31
2022-09-26T01:42:22.177Z,96633.41
2022-09-26T01:44:49.012Z,96637.31
2022-09-26T01:47:14.944Z,96636.75
2022-09-26T01:49:40.890Z,96632.44
2022-09-26T01:52:06.825Z,96640.31
2022-09-26T01:54:33.519Z,96636.25
2022-09-26T01:56:59.466Z,96639.13
2022-09-26T01:59:25.528Z,96646.13
2022-09-26T02:01:52.116Z,96641.59
2022-09-26T02:04:18.134Z,96641.16
2022-09-26T02:06:44.070Z,96633.50
2022-09-26T02:09:10.918Z,96635.97
2022-09-26T02:11:37.045Z,96625.59
2022-09-26T02:14:03.672Z,96638.25
2022-09-26T02:16:29.675Z,96625.09
2022-09-26T02:18:55.663Z,96624.38
2022-09-26T02:21:21.607Z,96625.47
2022-09-26T02:23:47.598Z,96624.22
2022-09-26T02:26:13.563Z,96617.13
2022-09-26T02:28:40.493Z,96619.94
2022-09-26T02:31:06.461Z,96613.97
2022-09-26T02:33:32.453Z,96610.66
2022-09-26T02:35:59.130Z,96604.78
2022-09-26T02:38:25.079Z,96602.00
2022-09-26T02:40:51.081Z,96593.66
2022-09-26T02:43:17.869Z,96604.66
2022-09-26T02:45:45.077Z,96594.09
2022-09-26T02:48:11.087Z,96586.38
2022-09-26T02:50:37.031Z,96573.16
2022-09-26T02:53:02.970Z,96575.69
2022-09-26T02:55:28.961Z,96574.56
2022-09-26T02:57:55.811Z,96566.44
2022-09-26T03:00:21.744Z,96567.22
2022-09-26T03:02:48.578Z,96570.63
2022-09-26T03:05:14.566Z,96562.28
2022-09-26T03:07:40.530Z,96570.03
2022-09-26T03:10:06.462Z,96559.13
2022-09-26T03:12:32.399Z,96556.53
2022-09-26T03:14:58.887Z,96565.06
2022-09-26T03:17:24.880Z,96572.38
2022-09-26T03:19:51.563Z,96572.50
2022-09-26T03:22:17.579Z,96572.25
2022-09-26T03:24:44.296Z,96569.28
2022-09-26T03:27:10.251Z,96562.63
2022-09-26T03:29:36.176Z,96563.19
2022-09-26T03:32:02.250Z,96570.75
2022-09-26T03:34:28.234Z,96571.56
2022-09-26T03:36:54.880Z,96573.88
2022-09-26T03:39:20.831Z,96585.03
2022-09-26T03:41:46.812Z,96579.03
2022-09-26T03:44:12.841Z,96587.78
2022-09-26T03:46:40.169Z,96589.63
2022-09-26T03:49:07.256Z,96589.06
2022-09-26T03:51:33.230Z,96593.53
2022-09-26T03:53:59.187Z,96600.28
2022-09-26T03:56:25.747Z,96598.63
2022-09-26T03:58:51.699Z,96601.91
2022-09-26T04:01:17.712Z,96602.72
2022-09-26T04:03:49.263Z,96601.19
2022-09-26T04:06:16.682Z,96592.00
2022-09-26T04:08:42.610Z,96597.00
2022-09-26T04:11:08.571Z,96587.78
2022-09-26T04:13:53.197Z,96589.69
2022-09-26T04:16:21.471Z,96581.47
2022-09-26T04:18:47.593Z,96576.88
2022-09-26T04:21:13.930Z,96572.00
2022-09-26T04:23:40.176Z,96581.25
2022-09-26T04:26:07.184Z,96570.75
2022-09-26T06:33:33.541Z,96642.66
2022-09-26T06:35:59.645Z,96644.63
2022-09-26T06:38:25.609Z,96644.34
2022-09-26T06:40:51.694Z,96643.25
2022-09-26T06:43:18.466Z,96651.66
2022-09-26T06:45:45.371Z,96655.72
2022-09-26T06:48:11.302Z,96665.38
2022-09-26T06:50:37.256Z,96660.06
2022-09-26T06:53:05.929Z,96659.28
2022-09-26T06:55:32.418Z,96662.88
2022-09-26T06:57:58.414Z,96657.34
2022-09-26T07:00:24.364Z,96656.84
2022-09-26T07:02:51.110Z,96658.28
2022-09-26T07:05:17.041Z,96666.50
2022-09-26T07:07:43.002Z,96654.41
2022-09-26T07:10:09.626Z,96655.41
2022-09-26T07:12:35.620Z,96649.22
2022-09-26T07:15:01.579Z,96649.47
2022-09-26T07:17:27.560Z,96648.47
2022-09-26T07:19:53.533Z,96643.50
2022-09-26T07:22:20.205Z,96649.19
2022-09-26T07:24:47.074Z,96657.06
2022-09-26T07:27:13.756Z,96649.31
2022-09-26T07:29:39.717Z,96648.38
2022-09-26T07:32:06.380Z,96651.94
2022-09-26T07:34:32.532Z,96654.16
2022-09-26T07:36:58.483Z,96656.44
2022-09-26T07:39:24.415Z,96667.38
2022-09-26T07:41:51.272Z,96666.31
2022-09-26T07:47:03.290Z,96672.97
2022-09-26T07:49:29.917Z,96667.22
2022-09-26T07:51:55.906Z,96663.72
2022-09-26T07:54:21.876Z,96683.13
2022-09-26T07:56:48.555Z,96673.25
2022-09-26T07:59:14.504Z,96674.28
2022-09-26T08:01:40.484Z,96675.16
2022-09-26T08:04:07.463Z,96676.50
2022-09-26T08:06:33.446Z,96674.50
2022-09-26T08:09:00.001Z,96667.31
2022-09-26T08:11:25.983Z,96670.25
2022-09-26T08:13:51.957Z,96673.69
2022-09-26T08:16:17.988Z,96673.19
2022-09-26T08:18:44.003Z,96679.59
2022-09-26T08:21:09.977Z,96678.63
2022-09-26T08:23:36.810Z,96680.91
2022-09-26T08:26:02.798Z,96691.53
2022-09-26T08:28:28.807Z,96693.56
2022-09-26T08:30:54.793Z,96701.59
2022-09-26T08:33:20.766Z,96695.22
2022-09-26T08:35:46.719Z,96691.38
2022-09-26T08:38:12.715Z,96687.22
2022-09-26T08:40:38.769Z,96691.91
2022-09-26T08:43:04.781Z,96691.38
2022-09-26T08:45:30.753Z,96690.47
2022-09-26T08:47:56.733Z,96683.47
2022-09-26T08:50:22.731Z,96683.28
2022-09-26T08:52:48.691Z,96688.53
2022-09-26T08:55:15.330Z,96685.31
2022-09-26T08:57:41.291Z,96683.13
2022-09-26T09:00:07.715Z,96677.44
2022-09-26T09:02:33.829Z,96671.06
2022-09-26T09:04:59.863Z,96681.00
2022-09-26T09:07:26.693Z,96677.53
2022-09-26T09:09:53.284Z,96667.84
2022-09-26T09:12:23.570Z,96672.50
2022-09-26T09:15:07.667Z,96670.44
2022-09-26T09:17:36.947Z,96675.00
2022-09-26T09:20:04.093Z,96676.00
2022-09-26T09:22:30.357Z,96667.88
2022-09-26T09:24:56.494Z,96666.88
2022-09-26T11:17:45.836Z,96627.53
2022-09-26T11:20:11.803Z,96627.53
2022-09-26T11:22:37.757Z,96620.69
2022-09-26T11:25:04.589Z,96614.72
2022-09-26T11:27:31.594Z,96617.63
2022-09-26T11:29:57.614Z,96607.81
2022-09-26T11:32:24.324Z,96602.78
2022-09-26T11:34:50.285Z,96599.06
2022-09-26T11:37:16.214Z,96599.56
2022-09-26T11:39:43.052Z,96593.69
2022-09-26T11:42:09.036Z,96588.16
2022-09-26T11:44:35.000Z,96591.81
2022-09-26T11:47:01.901Z,96583.72
2022-09-26T11:49:28.456Z,96574.66
2022-09-26T11:51:54.391Z,96572.13
2022-09-26T11:54:20.411Z,96565.75
2022-09-26T11:56:46.400Z,96562.13
2022-09-26T11:59:12.428Z,96550.94
2022-09-26T12:01:38.416Z,96549.25
2022-09-26T12:04:05.256Z,96540.28
2022-09-26T12:06:31.342Z,96545.25
2022-09-26T12:08:57.277Z,96546.78
2022-09-26T12:11:23.235Z,96538.28
2022-09-26T12:13:49.186Z,96537.97
2022-09-26T12:16:15.242Z,96528.50
2022-09-26T12:18:42.260Z,96530.97
2022-09-26T12:21:08.924Z,96522.75
2022-09-26T12:23:34.907Z,96525.66
2022-09-26T12:26:00.849Z,96520.13
2022-09-26T12:28:27.760Z,96514.16
2022-09-26T12:30:53.798Z,96499.94
2022-09-26T12:33:19.782Z,96507.16
2022-09-26T12:35:45.745Z,96508.50
2022-09-26T12:38:11.879Z,96509.59
2022-09-26T12:40:38.672Z,96505.66
2022-09-26T12:43:04.716Z,96511.53
2022-09-26T12:45:30.670Z,96501.63
2022-09-26T12:47:56.683Z,96506.69
2022-09-26T12:50:23.070Z,96493.59
2022-09-26T12:52:49.066Z,96511.38
2022-09-26T12:55:15.035Z,96506.63
2022-09-26T12:57:41.870Z,96511.13
2022-09-26T13:00:07.850Z,96502.81
2022-09-26T13:02:33.957Z,96504.53
2022-09-26T13:04:59.912Z,96497.47
2022-09-26T13:07:27.645Z,96490.03
2022-09-26T13:09:53.600Z,96487.44
2022-09-26T13:12:19.552Z,96481.88
2022-09-26T13:14:46.519Z,96481.06
2022-09-26T13:17:12.453Z,96475.13
2022-09-26T13:19:38.421Z,96485.47
2022-09-26T13:22:05.115Z,96482.19
2022-09-26T13:24:31.078Z,96479.28
2022-09-26T13:26:57.044Z,96474.34
2022-09-26T13:29:23.831Z,96476.31
2022-09-26T13:31:49.921Z,96473.78
2022-09-26T13:34:15.903Z,96472.19
2022-09-26T13:36:42.523Z,96478.22
2022-09-26T13:39:09.151Z,96468.84
2022-09-26T13:41:35.381Z,96459.91
2022-09-26T13:44:01.331Z,96466.38
2022-09-26T13:46:27.450Z,96457.28
2022-09-26T13:48:53.511Z,96460.34
2022-09-26T13:51:19.451Z,96454.44
2022-09-26T13:53:47.008Z,96452.28
2022-09-26T13:56:12.978Z,96455.75
2022-09-26T13:58:39.263Z,96457.88
2022-09-26T14:01:05.553Z,96454.72
2022-09-26T14:03:31.817Z,96446.00
2022-09-26T14:05:58.089Z,96445.50
2022-09-26T14:08:24.448Z,96445.88
2022-09-26T14:10:50.821Z,96449.88
2022-09-26T16:17:59.769Z,96392.91
2022-09-26T16:20:25.750Z,96392.38
2022-09-26T16:22:51.750Z,96395.31
2022-09-26T16:25:17.718Z,96402.22
2022-09-26T16:27:44.622Z,96400.91
2022-09-26T16:30:10.550Z,96397.44
2022-09-26T16:32:36.511Z,96385.44
2022-09-26T16:35:03.239Z,96386.53
2022-09-26T16:37:29.207Z,96389.13
2022-09-26T16:39:55.136Z,96397.94
2022-09-26T16:42:21.912Z,96392.88
2022-09-26T16:44:47.850Z,96395.25
2022-09-26T16:47:13.784Z,96394.22
2022-09-26T16:49:39.770Z,96392.59
2022-09-26T16:52:05.743Z,96387.28
2022-09-26T16:54:31.708Z,96392.09
2022-09-26T16:56:57.677Z,96388.88
2022-09-26T16:59:24.369Z,96392.88
2022-09-26T17:01:50.467Z,96387.56
2022-09-26T17:04:16.669Z,96393.69
2022-09-26T17:06:43.567Z,96395.56
2022-09-26T17:09:09.536Z,96399.00
2022-09-26T17:11:35.912Z,96397.13
2022-09-26T17:14:01.831Z,96395.00
2022-09-26T17:16:27.844Z,96400.56
2022-09-26T17:18:53.860Z,96399.50
2022-09-26T17:21:19.816Z,96400.31
2022-09-26T17:23:45.801Z,96400.06
2022-09-26T17:26:11.768Z,96400.06
2022-09-26T17:28:37.788Z,96397.91
2022-09-26T17:31:04.338Z,96410.41
2022-09-26T17:33:31.042Z,96403.22
2022-09-26T17:35:57.017Z,96401.38
2022-09-26T17:38:22.991Z,96393.91
2022-09-26T17:40:49.030Z,96388.53
2022-09-26T17:43:15.090Z,96392.81
2022-09-26T17:45:41.821Z,96388.31
2022-09-26T17:48:07.782Z,96388.03
2022-09-26T17:50:34.473Z,96394.66
2022-09-26T17:53:01.072Z,96387.47
2022-09-26T17:55:27.044Z,96382.41
2022-09-26T17:57:53.035Z,96385.88
2022-09-26T18:00:18.999Z,96393.09
2022-09-26T18:02:45.972Z,96395.47
2022-09-26T18:05:12.109Z,96391.72
2022-09-26T18:07:38.082Z,96389.59
2022-09-26T18:10:04.954Z,96395.13
2022-09-26T18:12:30.930Z,96393.78
2022-09-26T18:14:57.635Z,96397.50
2022-09-26T18:17:23.615Z,96391.63
2022-09-26T18:19:49.593Z,96401.66
2022-09-26T18:22:15.537Z,96396.16
2022-09-26T18:24:41.509Z,96400.44
2022-09-26T18:27:07.453Z,96404.31
2022-09-26T18:29:34.261Z,96396.31
2022-09-26T18:32:01.180Z,96404.25
2022-09-26T18:34:27.179Z,96398.34
2022-09-26T18:36:53.106Z,96397.47
2022-09-26T18:39:19.087Z,96394.03
2022-09-26T18:41:45.030Z,96398.41
2022-09-26T18:44:10.997Z,96407.88
2022-09-26T18:46:37.783Z,96397.69
2022-09-26T18:49:03.772Z,96403.81
2022-09-26T18:51:29.774Z,96399.00
2022-09-26T18:53:55.720Z,96406.47
2022-09-26T18:56:21.956Z,96398.47
2022-09-26T18:58:48.264Z,96401.41
2022-09-26T19:01:14.998Z,96393.16
2022-09-26T19:03:41.318Z,96395.09
2022-09-26T19:06:07.582Z,96389.00
2022-09-26T19:08:35.614Z,96391.94
2022-09-26T21:14:03.710Z,96326.19
2022-09-26T21:16:29.731Z,96313.91
2022-09-26T21:18:55.724Z,96322.72
2022-09-26T21:21:22.584Z,96315.53
2022-09-26T21:23:49.273Z,96318.47
2022-09-26T21:26:16.156Z,96312.06
2022-09-26T21:28:42.819Z,96312.28
2022-09-26T21:31:08.849Z,96301.91
2022-09-26T21:33:34.893Z,96301.66
2022-09-26T21:36:00.878Z,96288.41
2022-09-26T21:38:26.843Z,96286.81
2022-09-26T21:40:52.929Z,96283.63
2022-09-26T21:43:19.441Z,96279.34
2022-09-26T21:45:45.452Z,96272.97
2022-09-26T21:48:11.427Z,96271.88
2022-09-26T21:50:38.124Z,96271.59
2022-09-26T21:53:04.127Z,96275.91
2022-09-26T21:55:30.140Z,96272.16
2022-09-26T21:57:56.154Z,96272.91
2022-09-26T22:00:22.105Z,96267.63
2022-09-26T22:02:49.094Z,96261.50
2022-09-26T22:05:15.096Z,96256.44
2022-09-26T22:07:41.070Z,96250.06
2022-09-26T22:10:07.315Z,96247.41
2022-09-26T22:12:33.294Z,96236.22
2022-09-26T22:15:00.072Z,96235.72
2022-09-26T22:17:26.084Z,96228.78
2022-09-26T22:19:52.074Z,96222.91
2022-09-26T22:22:19.006Z,96228.44
2022-09-26T22:24:44.959Z,96224.19
2022-09-26T22:27:10.916Z,96225.00
2022-09-26T22:29:36.844Z,96222.06
2022-09-26T22:32:03.060Z,96217.53
2022-09-26T22:34:29.020Z,96211.94
2022-09-26T22:36:55.700Z,96223.13
2022-09-26T22:39:21.703Z,96212.72
2022-09-26T22:41:47.644Z,96210.59
2022-09-26T22:44:13.618Z,96204.22
2022-09-26T22:46:39.647Z,96197.56
2022-09-26T22:49:06.326Z,96185.31
2022-09-26T22:51:32.309Z,96179.47
2022-09-26T22:53:58.247Z,96178.94
2022-09-26T22:56:24.229Z,96184.53
2022-09-26T22:58:50.205Z,96179.50
2022-09-26T23:01:16.406Z,96185.38
2022-09-26T23:03:42.429Z,96186.94
2022-09-26T23:06:08.399Z,96183.25
2022-09-26T23:08:34.333Z,96181.34
2022-09-26T23:11:00.558Z,96173.66
2022-09-26T23:13:26.559Z,96171.50
2022-09-26T23:15:52.595Z,96176.81
2022-09-26T23:18:19.558Z,96165.41
2022-09-26T23:20:45.620Z,96157.13
2022-09-26T23:23:11.628Z,96149.44
2022-09-26T23:25:38.528Z,96150.22
2022-09-26T23:28:07.266Z,96153.94
2022-09-26T23:30:33.233Z,96148.91
2022-09-26T23:33:00.185Z,96147.81
2022-09-26T23:35:26.642Z,96142.50
2022-09-26T23:37:52.601Z,96140.91
2022-09-26T23:40:18.805Z,96131.91
2022-09-26T23:42:45.492Z,96136.69
2022-09-26T23:45:11.520Z,96138.00
2022-09-26T23:47:37.473Z,96136.94
2022-09-26T23:50:03.408Z,96133.50
2022-09-26T23:52:29.686Z,96122.56
2022-09-26T23:54:57.114Z,96116.97
2022-09-26T23:57:23.488Z,96112.75
2022-09-26T23:59:49.791Z,96113.78
